Weathercam Coevorden Meer informatie Weathercam Coevorden



Het weer levert geen direct gevaar op.    Er zijn geen waarschuwingen afgegeven.

METAR rapporten vliegvelden

   
EHVK - Volkel Rnlafb, Netherlands
Afstand tot: ZW 18 km
Gewijzigd: 05-07-2020 19:25
Licht bewolkt  
Licht bewolkt  
   Wind: WZW 27.8 km/h<br />Gust to 27.8 km/h
Wind: WZW 27.8 km/h
Gust to 27.8 km/h
Temperatuur: 21°C
Dauwpunt: 11°C
Vochtigheid: 53%
Barometer: 1010 hPa
Bewolking: Licht bewolkt
Zicht: meer dan 10 km
Bewolking: Licht bewolkt 1341.1 m
EHVK 051725Z AUTO 25015G29KT 220V290 9999 FEW044 21/11 Q1010 BLU
EDLV - Niederrhein, Germany
Afstand tot: ZO 25 km
Gewijzigd: 05-07-2020 19:20
Helder  
Helder  
   Wind: WZW 33.3 km/h<br />Gust to 33.3 km/h
Wind: WZW 33.3 km/h
Gust to 33.3 km/h
Temperatuur: 23°C
Dauwpunt: 12°C
Vochtigheid: 50%
Barometer: 1010 hPa
Zicht: meer dan 10 km
Bewolking: Helder
EDLV 051720Z 24018G28KT CAVOK 23/12 Q1010
EHDL - Deelen Rnlafb, Netherlands
Afstand tot: N 35 km
Gewijzigd: 05-07-2020 19:25
Bewolking  
Bewolking  
   Wind: ZW 22.2 km/h
Wind: ZW 22.2 km/h
Temperatuur: 20°C
Dauwpunt: 13°C
Vochtigheid: 64%
Barometer: 1009 hPa
Bewolking: Bewolking
Zicht: meer dan 10 km
Bewolking: Grotendeels bewolkt 1036.3 m,
Grotendeels bewolkt 1219.2 m,
Bewolking 1524 m
EHDL 051725Z AUTO 23012KT 170V320 9999 BKN034 BKN040 OVC050 20/13 Q1009 BLU
EHEH - Eindhoven Rnlafb, Netherlands
Afstand tot: ZW 48 km
Gewijzigd: 05-07-2020 19:25
Grotendeels bewolkt  
Grotendeels bewolkt  
   Wind: WZW 31.5 km/h
Wind: WZW 31.5 km/h
Temperatuur: 21°C
Dauwpunt: 12°C
Vochtigheid: 57%
Barometer: 1010 hPa
Bewolking: Grotendeels bewolkt
Zicht: meer dan 10 km
Bewolking: Grotendeels bewolkt 1219.2 m,
Grotendeels bewolkt 1371.6 m,
Grotendeels bewolkt 1554.5 m
EHEH 051725Z AUTO 24017KT 190V280 9999 BKN040 BKN045 BKN051 21/12 Q1010 BLU 24017G27KT 9999 SCT040 SCT045 TEMPO 24020G34KT
EHGR - Gilze-Rijen Rnla, Netherlands
Afstand tot: WZW 70 km
Gewijzigd: 05-07-2020 19:25
Grotendeels bewolkt  
Grotendeels bewolkt  
   Wind: WZW 24.1 km/h
Wind: WZW 24.1 km/h
Temperatuur: 21°C
Dauwpunt: 11°C
Vochtigheid: 53%
Barometer: 1010 hPa
Bewolking: Grotendeels bewolkt
Zicht: meer dan 10 km
Bewolking: Licht bewolkt 1280.2 m,
Grotendeels bewolkt 1402.1 m,
Grotendeels bewolkt 1645.9 m
EHGR 051725Z AUTO 24013KT 200V280 9999 FEW042 BKN046 BKN054 21/11 Q1010 BLU
EBBL - Kleine-Brogel(Ba, Belgium
Afstand tot: ZZW 71 km
Gewijzigd: 05-07-2020 19:25
Grotendeels bewolkt  
Grotendeels bewolkt  
   Wind: Westen 37 km/h<br />Gust to 37 km/h
Wind: Westen 37 km/h
Gust to 37 km/h
Temperatuur: 22°C
Dauwpunt: 13°C
Vochtigheid: 57%
Barometer: 1011 hPa
Bewolking: Grotendeels bewolkt
Zicht: meer dan 10 km
Bewolking: Grotendeels bewolkt 1249.7 m
EBBL 051725Z AUTO 26020G31KT 9999 BKN041/// 22/13 Q1011 BLU

Script ontwikkeld door  Saratoga-weather.org Aangepast voor de template door  Weerstation Leuven